• Join FlightAware (Why Join?)
  • Login
  • US Flag 
07:27PM EDT


 

Airport Tracker/Info


-or-


 

Live Flight TrackerFlight Track Log ✈ N286MC ✈ 20-Apr-2012 ✈ KFLL - TUPJ / EIS

Flight Track Log - Related Links

Times and Time Zones

All times are in EDT time to prevent confusion due to time zone crossing. See the N286MC flight status page for this flight to view local times or setup timezone preferences in your user account.

Time Position Orientation Groundspeed Altitude Reporting Facility
EDT Latitude Longitude Course Direction KTS MPH feet Rate Location/Type
02:20PM 26.0750 -80.1367 85° East 181 208 900  Level Miami Center
02:21PM 26.0833 -80.0397 82° East 240 276 4,000 1,560 Climbing Miami Center
02:23PM 26.0933 -79.9592 115° Southeast 264 304 5,000 600 Climbing Miami Center
02:24PM 26.0636 -79.8889 121° Southeast 247 284 5,300 1,800 Climbing Miami Center
02:25PM 26.0233 -79.8139 114° Southeast 252 290 8,700 3,420 Climbing Miami Center
02:26PM 25.9914 -79.7322 112° Southeast 271 312 12,200 3,120 Climbing Miami Center
02:27PM 25.9617 -79.6506 113° Southeast 282 325 15,000 1,860 Climbing Miami Center
02:28PM 25.9258 -79.5550 113° Southeast 304 350 16,000 480 Climbing Miami Center
02:29PM 25.8839 -79.4478 112° Southeast 344 396 16,000 600 Level Miami Center
02:30PM 25.8422 -79.3339 116° Southeast 355 409 17,200 1,800 Climbing Miami Center
02:31PM 25.7958 -79.2292 117° Southeast 363 418 19,600 2,400 Climbing Miami Center
02:32PM 25.7514 -79.1314 115° Southeast 363 418 22,100 2,460 Climbing Miami Center
02:33PM 25.7089 -79.0314 115° Southeast 358 412 24,600 2,100 Climbing Miami Center
02:34PM 25.6725 -78.9431 117° Southeast 348 400 26,400 1,320 Climbing Miami Center
02:35PM 25.6258 -78.8433 114° Southeast 348 400 27,300 840 Climbing Miami Center
02:36PM 25.5814 -78.7319 116° Southeast 369 425 28,100 720 Climbing Miami Center
02:37PM 25.5306 -78.6158 115° Southeast 392 451 28,800 720 Climbing Miami Center
02:38PM 25.4778 -78.4886 115° Southeast 418 481 29,600 840 Climbing Miami Center
02:39PM 25.4247 -78.3636 116° Southeast 441 507 30,500 900 Climbing Miami Center
02:40PM 25.3675 -78.2364 115° Southeast 452 520 31,400 960 Climbing Miami Center
02:41PM 25.3122 -78.1072 115° Southeast 457 526 32,500 1,080 Climbing Miami Center
02:42PM 25.2569 -77.9778 117° Southeast 457 526 33,600 1,080 Climbing Miami Center
02:43PM 25.1992 -77.8511 121° Southeast 462 532 34,700 1,080 Climbing Miami Center
02:44PM 25.1353 -77.7333 121° Southeast 457 526 35,800 1,080 Climbing Miami Center
02:45PM 25.0689 -77.6092 119° Southeast 447 514 36,900 960 Climbing Miami Center
02:46PM 25.0028 -77.4756 122° Southeast 452 520 37,800 660 Climbing Miami Center
02:47PM 24.9425 -77.3675 121° Southeast 460 529 38,300 480 Climbing Miami Center
02:48PM 24.8761 -77.2458 120° Southeast 460 529 38,800 480 Climbing Miami Center
02:49PM 24.8136 -77.1267 121° Southeast 460 529 39,300 480 Climbing Miami Center
02:50PM 24.7489 -77.0075 120° Southeast 455 524 39,800 480 Climbing Miami Center
02:51PM 24.6842 -76.8839 121° Southeast 455 524 40,300 480 Climbing Miami Center
02:52PM 24.6194 -76.7650 121° Southeast 455 524 40,800 300 Climbing Miami Center
02:53PM 24.5544 -76.6442 121° Southeast 455 524 41,000 60 Climbing Miami Center
02:54PM 24.4894 -76.5231 119° Southeast 455 524 41,000  Level Miami Center
02:55PM 24.4200 -76.3864 120° Southeast 460 529 41,000  Level Miami Center
02:56PM 24.3528 -76.2589 122° Southeast 467 537 41,000  Level Miami Center
02:57PM 24.2811 -76.1339 120° Southeast 473 544 41,000  Level Miami Center
02:58PM 24.2114 -76.0022 121° Southeast 484 557 41,000  Level Miami Center
02:59PM 24.1481 -75.8886 121° Southeast 484 557 41,000  Level Miami Center
03:00PM 24.0761 -75.7594 120° Southeast 491 565 41,000  Level Miami Center
03:01PM 24.0081 -75.6306 120° Southeast 496 571 41,000  Level Miami Center
03:02PM 23.9361 -75.4969 122° Southeast 496 571 41,000  Level Miami Center
03:03PM 23.8617 -75.3683 122° Southeast 496 571 41,000  Level Miami Center
03:04PM 23.7892 -75.2419 121° Southeast 496 571 41,000  Level Miami Center
03:05PM 23.7167 -75.1092 121° Southeast 496 571 41,000  Level Miami Center
03:06PM 23.6442 -74.9786 121° Southeast 496 571 41,000  Level Miami Center
03:07PM 23.5733 -74.8481 123° Southeast 496 571 41,000  Level Miami Center
03:08PM 23.4986 -74.7203 121° Southeast 496 571 41,000  Level Miami Center
03:09PM 23.4256 -74.5900 121° Southeast 496 571 41,000  Level Miami Center
03:10PM 23.3544 -74.4625 122° Southeast 496 571 41,000  Level Miami Center
03:11PM 23.2814 -74.3350 122° Southeast 491 565 41,000  Level Miami Center
03:12PM 23.2081 -74.2053 122° Southeast 491 565 41,000  Level Miami Center
03:13PM 23.1347 -74.0758 122° Southeast 491 565 41,000  Level Miami Center
03:14PM 23.0614 -73.9486 121° Southeast 491 565 41,000  Level Miami Center
03:15PM 22.9833 -73.8083 123° Southeast 491 565 41,000  Level Miami Center
03:16PM 22.9075 -73.6794 122° Southeast 491 565 41,000  Level Miami Center
03:17PM 22.8339 -73.5528 121° Southeast 491 565 41,000  Level Miami Center
03:18PM 22.7600 -73.4217 121° Southeast 491 565 41,000  Level Miami Center
03:19PM 22.6881 -73.2908 122° Southeast 496 571 41,000  Level Miami Center
03:20PM 22.6139 -73.1625 123° Southeast 501 577 41,000  Level Miami Center
03:21PM 22.5378 -73.0364 123° Southeast 496 571 41,000  Level Miami Center
03:22PM 22.4633 -72.9106 122° Southeast 496 571 41,000  Level Miami Center
03:23PM 22.3889 -72.7803 122° Southeast 496 571 41,000  Level Miami Center
03:24PM 22.3167 -72.6547 122° Southeast 496 571 41,000  Level Miami Center
03:25PM 22.2422 -72.5269 122° Southeast 496 571 41,000  Level Miami Center
03:26PM 22.1675 -72.3994 122° Southeast 496 571 41,000  Level Miami Center
03:27PM 22.0928 -72.2722 123° Southeast 496 571 41,000  Level Miami Center
03:28PM 22.0158 -72.1450 122° Southeast 496 571 41,000  Level Miami Center
03:29PM 21.9408 -72.0181 122° Southeast 496 571 41,000  Level Miami Center
03:30PM 21.8681 -71.8933 122° Southeast 496 571 41,000  Level Miami Center
03:31PM 21.7928 -71.7642 123° Southeast 496 571 41,000  Level Miami Center
03:32PM 21.7175 -71.6375 123° Southeast 496 571 41,000  Level Miami Center
03:33PM 21.6422 -71.5133 123° Southeast 496 571 41,000  Level Miami Center
03:34PM 21.5669 -71.3869 122° Southeast 490 564 41,000  Level Miami Center
03:35PM 21.5092 -71.2892 123° Southeast 490 564 41,000  Level Miami Center
03:36PM 21.4247 -71.1500 122° Southeast 490 564 41,000  Level Miami Center
03:37PM 21.3600 -71.0392 123° Southeast 490 564 41,000  Level Miami Center
03:38PM 21.2708 -70.8894 122° Southeast 457 526 41,000  Level Miami Center
03:39PM 21.1950 -70.7617 124° Southeast 485 558 41,000  Level Miami Center
03:40PM 21.1169 -70.6364 122° Southeast 499 574 41,000  Level Miami Center
03:41PM 21.0411 -70.5089 123° Southeast 504 580 41,000  Level Miami Center
03:42PM 20.9628 -70.3817 123° Southeast 510 587 41,000  Level Miami Center
03:43PM 20.8867 -70.2567 122° Southeast 510 587 41,000  Level Miami Center
03:44PM 20.8103 -70.1272 123° Southeast 510 587 41,000  Level Miami Center
03:45PM 20.7339 -70.0028 122° Southeast 510 587 41,000  Level Miami Center
03:46PM 20.6572 -69.8736 124° Southeast 510 587 41,000  Level Miami Center
03:47PM 20.5786 -69.7472 124° Southeast 510 587 41,000  Level Miami Center
03:48PM 20.4997 -69.6208 123° Southeast 510 587 41,000  Level Miami Center
03:49PM 20.4208 -69.4925 124° Southeast 510 587 41,000  Level Miami Center
03:50PM 20.3353 -69.3581 119° Southeast 510 587 41,000  Level Miami Center
03:51PM 20.2664 -69.2250 110° East 505 581 41,000  Level Miami Center
03:52PM 20.2175 -69.0797 109° East 511 588 41,000  Level Miami Center
03:53PM 20.1706 -68.9325 113° Southeast 516 594 41,000  Level Miami Center
03:54PM 20.1206 -68.8078 108° East 516 594 41,000  Level Miami Center
03:55PM 20.0806 -68.6800 112° Southeast 516 594 41,000  Level Miami Center
03:56PM 20.0128 -68.5014 112° Southeast 475 547 41,000  Level Miami Center
03:57PM 19.9594 -68.3594 112° Southeast 508 585 41,000  Level Miami Center
03:58PM 19.9036 -68.2153 125° Southeast 519 597 41,000  Level Miami Center
03:58PM 19.8500 -68.1333 109° East 530 610 41,000  Level San Juan Center
03:59PM 19.8000 -67.9833 112° Southeast 520 598 41,000  Level San Juan Center
04:00PM 19.7500 -67.8500 109° East 520 598 41,000  Level San Juan Center
04:01PM 19.7000 -67.7000 118° Southeast 520 598 41,000  Level San Juan Center
04:02PM 19.6333 -67.5667 109° East 520 598 41,000  Level San Juan Center
04:03PM 19.5833 -67.4167 109° East 520 598 41,000  Level San Juan Center
04:04PM 19.5333 -67.2667 118° Southeast 530 610 41,000  Level San Juan Center
04:05PM 19.4667 -67.1333 109° East 520 598 41,000  Level San Juan Center
04:06PM 19.4167 -66.9833 112° Southeast 530 610 41,000  Level San Juan Center
04:07PM 19.3667 -66.8500 115° Southeast 520 598 41,000 -180 Level San Juan Center
04:08PM 19.3000 -66.7000 109° East 530 610 40,700 -1,140 Descending San Juan Center
04:09PM 19.2500 -66.5500 112° Southeast 520 598 38,800 -2,040 Descending San Juan Center
04:10PM 19.2000 -66.4167 118° Southeast 510 587 36,600 -2,220 Descending San Juan Center
04:11PM 19.1333 -66.2833 109° East 490 564 34,400 -2,400 Descending San Juan Center
04:12PM 19.0833 -66.1333 112° Southeast 490 564 31,800 -2,700 Descending San Juan Center
04:13PM 19.0333 -66.0000 112° Southeast 480 552 29,000 -2,760 Descending San Juan Center
04:14PM 18.9833 -65.8667 114° Southeast 460 529 26,300 -2,700 Descending San Juan Center
04:15PM 18.9333 -65.7500 114° Southeast 450 518 23,600 -2,700 Descending San Juan Center
04:16PM 18.8833 -65.6333 114° Southeast 420 483 20,900 -2,700 Descending San Juan Center
04:17PM 18.8333 -65.5167 109° East 410 472 18,200 -2,640 Descending San Juan Center
04:18PM 18.8000 -65.4167 118° Southeast 380 437 15,600 -2,400 Descending San Juan Center
04:19PM 18.7500 -65.3167 113° Southeast 350 403 13,400 -1,860 Descending San Juan Center
04:20PM 18.7167 -65.2333 113° Southeast 330 380 11,900 -1,500 Descending San Juan Center
04:21PM 18.6833 -65.1500 128° Southeast 310 357 10,500 -1,440 Descending San Juan Center
04:22PM 18.6333 -65.0833 122° Southeast 310 357 9,100 -1,440 Descending San Juan Center
04:23PM 18.5833 -65.0000 128° Southeast 300 345 7,700 -1,440 Descending San Juan Center
04:24PM 18.5333 -64.9333 128° Southeast 290 334 6,200 -1,560 Descending San Juan Center
04:25PM 18.4833 -64.8667 125° Southeast 270 311 4,600 -1,440 Descending San Juan Center
04:26PM 18.4500 -64.8167 125° Southeast 240 276 3,300 -660 Descending San Juan Center
04:27PM 18.4167 -64.7667 118° Southeast 210 242 3,300  Level San Juan Center
04:28PM 18.3833 -64.7000 90° East 210 242 3,300 -240 Level San Juan Center
04:29PM 18.3833 -64.6667 90° East 190 219 2,900 -660 Descending San Juan Center
04:30PM 18.3833 -64.6167 90° East 170 196 2,000 -660 Descending San Juan Center
04:31PM 18.3833 -64.5833 136° Southeast 110 127 1,600 -240 Descending San Juan Center
04:32PM 18.3500 -64.5500 360° North 120 138 1,600 -360 Level San Juan Center
04:33PM 18.4000 -64.5500 360° North 150 173 900 -720 Descending San Juan Center